createdAt,value
2018-06-10T00:01:24.575Z,97.11
2018-06-10T00:03:53.163Z,98.30
2018-06-10T00:06:21.810Z,97.86
2018-06-10T00:08:50.409Z,99.02
2018-06-10T00:11:18.976Z,98.73
2018-06-10T00:13:47.638Z,99.44
2018-06-10T00:16:16.212Z,99.72
2018-06-10T00:18:44.777Z,98.98
2018-06-10T00:21:13.377Z,98.54
2018-06-10T00:23:41.934Z,97.81
2018-06-10T00:26:10.530Z,97.50
2018-06-10T00:28:44.220Z,97.37
2018-06-10T00:31:12.820Z,97.36
2018-06-10T00:33:41.396Z,97.29
2018-06-10T00:36:09.963Z,97.40
2018-06-10T00:38:38.562Z,98.11
2018-06-10T00:41:07.157Z,96.51
2018-06-10T00:43:35.758Z,96.50
2018-06-10T00:46:04.360Z,96.07
2018-06-10T00:48:32.952Z,95.30
2018-06-10T00:51:01.643Z,95.02
2018-06-10T00:53:30.180Z,94.35
2018-06-10T00:55:58.853Z,95.08
2018-06-10T00:58:27.443Z,95.11
2018-06-10T01:00:56.007Z,94.97
2018-06-10T01:03:24.571Z,94.41
2018-06-10T01:05:53.210Z,93.77
2018-06-10T01:08:21.779Z,93.43
2018-06-10T01:10:50.395Z,92.71
2018-06-10T01:13:18.995Z,92.99
2018-06-10T01:15:47.560Z,93.49
2018-06-10T01:18:16.126Z,92.81
2018-06-10T01:20:44.763Z,93.73
2018-06-10T01:23:13.315Z,93.28
2018-06-10T01:25:41.866Z,92.93
2018-06-10T01:28:10.451Z,92.95
2018-06-10T01:30:39.032Z,93.56
2018-06-10T01:33:07.774Z,93.10
2018-06-10T01:35:36.359Z,92.72
2018-06-10T01:38:05.014Z,93.24
2018-06-10T01:40:33.570Z,93.05
2018-06-10T01:43:02.131Z,91.41
2018-06-10T01:45:30.720Z,91.53
2018-06-10T01:47:59.287Z,90.80
2018-06-10T01:50:27.873Z,91.01
2018-06-10T01:52:56.452Z,92.79
2018-06-10T01:55:25.031Z,92.58
2018-06-10T01:57:53.595Z,91.49
2018-06-10T02:00:22.147Z,91.01
2018-06-10T02:02:50.732Z,90.33
2018-06-10T02:05:19.287Z,91.54
2018-06-10T02:07:47.847Z,92.10
2018-06-10T02:10:16.400Z,91.58
2018-06-10T02:12:44.992Z,90.46
2018-06-10T02:15:13.562Z,90.52
2018-06-10T02:17:42.119Z,91.87
2018-06-10T02:20:10.700Z,90.42
2018-06-10T02:22:39.259Z,90.60
2018-06-10T02:25:07.808Z,89.94
2018-06-10T02:27:36.393Z,89.26
2018-06-10T02:30:06.936Z,89.33
2018-06-10T02:32:35.525Z,89.51
2018-06-10T02:35:04.128Z,89.70
2018-06-10T02:37:32.768Z,90.06
2018-06-10T02:40:01.327Z,89.39
2018-06-10T02:42:29.957Z,88.66
2018-06-10T02:44:58.559Z,88.78
2018-06-10T02:47:27.154Z,90.28
2018-06-10T02:49:55.738Z,89.57
2018-06-10T02:52:24.323Z,89.98
2018-06-10T02:54:52.896Z,89.56
2018-06-10T02:57:21.634Z,89.07
2018-06-10T02:59:50.217Z,89.07
2018-06-10T03:02:18.812Z,88.37
2018-06-10T03:04:47.387Z,88.52
2018-06-10T03:07:15.962Z,88.96
2018-06-10T03:09:44.506Z,89.20
2018-06-10T03:12:13.059Z,88.71
2018-06-10T03:14:41.651Z,87.01
2018-06-10T03:17:10.212Z,87.27
2018-06-10T03:19:38.816Z,87.36
2018-06-10T03:22:07.386Z,87.31
2018-06-10T03:24:35.952Z,87.33
2018-06-10T03:27:04.560Z,87.27
2018-06-10T03:29:33.231Z,87.55
2018-06-10T03:32:01.812Z,88.06
2018-06-10T03:34:30.424Z,87.08
2018-06-10T03:36:59.031Z,86.78
2018-06-10T03:39:27.599Z,86.99
2018-06-10T03:41:56.206Z,86.73
2018-06-10T03:44:24.792Z,86.32
2018-06-10T03:46:53.383Z,86.43
2018-06-10T03:49:21.930Z,87.31
2018-06-10T03:51:50.587Z,87.72
2018-06-10T03:54:19.158Z,87.01
2018-06-10T03:56:47.700Z,87.35
2018-06-10T03:59:16.367Z,87.21
2018-06-10T04:01:44.979Z,88.19
2018-06-10T04:04:13.531Z,88.21
2018-06-10T04:06:42.105Z,89.00
2018-06-10T04:09:10.699Z,88.48
2018-06-10T04:11:39.309Z,88.02
2018-06-10T04:14:07.885Z,85.80
2018-06-10T04:16:36.552Z,85.04
2018-06-10T04:19:05.119Z,84.49
2018-06-10T04:21:33.685Z,83.91
2018-06-10T04:24:02.554Z,84.03
2018-06-10T04:26:31.154Z,84.30
2018-06-10T04:28:59.711Z,83.90
2018-06-10T04:31:28.249Z,82.66
2018-06-10T04:33:56.837Z,83.32
2018-06-10T04:36:25.378Z,82.54
2018-06-10T04:38:53.950Z,82.78
2018-06-10T04:41:22.524Z,83.08
2018-06-10T04:43:51.054Z,82.26
2018-06-10T04:46:19.581Z,82.77
2018-06-10T04:48:48.176Z,81.82
2018-06-10T04:51:16.754Z,80.75
2018-06-10T04:53:45.337Z,80.12
2018-06-10T04:56:13.892Z,78.75
2018-06-10T04:58:42.477Z,78.68
2018-06-10T05:01:11.072Z,77.54
2018-06-10T05:03:39.628Z,77.72
2018-06-10T05:06:08.207Z,76.72
2018-06-10T05:08:36.794Z,76.04
2018-06-10T05:11:05.378Z,76.55
2018-06-10T05:13:34.038Z,76.71
2018-06-10T05:16:02.614Z,75.89
2018-06-10T05:18:31.189Z,75.64
2018-06-10T05:20:59.753Z,74.00
2018-06-10T05:23:28.307Z,71.28
2018-06-10T05:25:56.885Z,68.50
2018-06-10T05:28:25.411Z,68.28
2018-06-10T05:30:54.031Z,68.62
2018-06-10T05:33:22.648Z,67.49
2018-06-10T05:35:51.204Z,65.92
2018-06-10T05:38:19.795Z,65.78
2018-06-10T05:40:48.450Z,65.91
2018-06-10T05:43:17.087Z,64.17
2018-06-10T05:45:45.805Z,63.40
2018-06-10T05:48:14.331Z,61.48
2018-06-10T05:50:42.964Z,61.66
2018-06-10T05:53:11.528Z,59.32
2018-06-10T05:55:40.110Z,60.23
2018-06-10T05:58:08.666Z,60.92
2018-06-10T06:00:37.227Z,58.33
2018-06-10T06:03:06.131Z,58.28
2018-06-10T06:05:34.738Z,57.42
2018-06-10T06:08:03.300Z,57.98
2018-06-10T06:10:31.875Z,58.73
2018-06-10T06:13:00.491Z,56.88
2018-06-10T06:15:29.112Z,57.32
2018-06-10T06:17:57.634Z,59.21
2018-06-10T06:20:26.230Z,58.75
2018-06-10T06:22:54.936Z,55.44
2018-06-10T06:25:23.903Z,57.63
2018-06-10T06:27:52.427Z,59.96
2018-06-10T06:30:21.100Z,57.36
2018-06-10T06:32:49.657Z,55.12
2018-06-10T06:35:18.239Z,55.06
2018-06-10T06:37:46.917Z,58.07
2018-06-10T06:40:15.467Z,57.95
2018-06-10T06:42:44.122Z,58.86
2018-06-10T06:45:12.690Z,57.23
2018-06-10T06:47:41.254Z,54.94
2018-06-10T06:50:09.894Z,52.67
2018-06-10T06:52:38.537Z,52.13
2018-06-10T06:55:07.134Z,54.03
2018-06-10T06:57:35.734Z,52.86
2018-06-10T07:00:06.462Z,53.80
2018-06-10T07:02:35.087Z,51.80
2018-06-10T07:05:03.753Z,50.71
2018-06-10T07:07:32.339Z,48.89
2018-06-10T07:10:00.984Z,49.79
2018-06-10T07:12:29.620Z,49.98
2018-06-10T07:14:58.307Z,49.37
2018-06-10T07:17:26.956Z,50.37
2018-06-10T07:19:55.622Z,48.60
2018-06-10T07:22:24.291Z,47.90
2018-06-10T07:24:52.918Z,47.07
2018-06-10T07:27:21.546Z,45.40
2018-06-10T07:29:50.184Z,46.66
2018-06-10T07:32:18.860Z,48.11
2018-06-10T07:34:47.512Z,50.25
2018-06-10T07:37:16.208Z,51.72
2018-06-10T07:39:44.932Z,54.32
2018-06-10T07:42:13.554Z,54.35
2018-06-10T07:44:56.868Z,52.08
2018-06-10T07:47:25.500Z,49.22
2018-06-10T07:49:54.186Z,47.77
2018-06-10T07:52:22.835Z,48.63
2018-06-10T07:54:51.479Z,47.47
2018-06-10T07:57:20.101Z,47.57
2018-06-10T07:59:48.780Z,50.35
2018-06-10T08:02:17.463Z,46.99
2018-06-10T08:04:46.183Z,45.00
2018-06-10T08:07:15.037Z,45.72
2018-06-10T08:09:43.721Z,43.46
2018-06-10T08:12:12.485Z,45.31
2018-06-10T08:14:41.173Z,43.64
2018-06-10T08:17:09.822Z,45.57
2018-06-10T08:19:38.929Z,46.88
2018-06-10T08:22:07.540Z,49.05
2018-06-10T08:24:36.208Z,50.77
2018-06-10T08:27:04.885Z,52.86
2018-06-10T08:29:33.520Z,51.65
2018-06-10T08:32:02.802Z,48.48
2018-06-10T08:34:31.457Z,46.29
2018-06-10T08:37:00.133Z,48.12
2018-06-10T08:39:28.755Z,48.23
2018-06-10T08:41:57.392Z,49.69
2018-06-10T08:44:26.009Z,49.95
2018-06-10T08:46:54.710Z,52.12
2018-06-10T08:49:23.339Z,52.38
2018-06-10T08:51:52.040Z,52.29
2018-06-10T08:54:20.766Z,52.45
2018-06-10T08:56:49.461Z,51.74
2018-06-10T08:59:18.092Z,51.30
2018-06-10T09:01:46.765Z,51.66
2018-06-10T09:04:15.416Z,50.89
2018-06-10T09:06:44.047Z,51.05
2018-06-10T09:09:12.678Z,53.44
2018-06-10T09:11:41.420Z,54.73
2018-06-10T09:14:10.119Z,54.52
2018-06-10T09:16:38.789Z,55.02
2018-06-10T09:19:07.428Z,56.27
2018-06-10T09:21:36.081Z,57.06
2018-06-10T09:24:04.723Z,58.04
2018-06-10T09:26:33.344Z,59.63
2018-06-10T09:29:01.996Z,60.79
2018-06-10T09:31:30.652Z,63.44
2018-06-10T09:33:59.301Z,65.74
2018-06-10T09:36:27.883Z,67.27
2018-06-10T09:38:56.530Z,68.57
2018-06-10T09:41:25.146Z,67.15
2018-06-10T09:43:53.764Z,68.04
2018-06-10T09:46:22.394Z,68.82
2018-06-10T09:48:50.995Z,67.38
2018-06-10T09:51:19.619Z,67.40
2018-06-10T09:53:48.280Z,66.51
2018-06-10T09:56:17.247Z,66.36
2018-06-10T09:58:45.880Z,65.98
2018-06-10T10:01:14.565Z,64.26
2018-06-10T10:03:43.207Z,60.37
2018-06-10T10:06:12.744Z,56.48
2018-06-10T10:08:41.734Z,57.58
2018-06-10T10:11:11.388Z,54.42
2018-06-10T10:13:39.995Z,53.70
2018-06-10T10:16:08.722Z,53.33
2018-06-10T10:18:37.410Z,51.60
2018-06-10T10:21:06.070Z,53.94
2018-06-10T10:23:34.976Z,53.44
2018-06-10T10:26:03.622Z,57.43
2018-06-10T10:28:32.280Z,58.31
2018-06-10T10:31:00.873Z,60.43
2018-06-10T10:33:29.501Z,61.16
2018-06-10T10:35:58.226Z,59.34
2018-06-10T10:38:26.899Z,57.62
2018-06-10T10:40:55.608Z,54.56
2018-06-10T10:43:24.241Z,54.82
2018-06-10T10:45:52.892Z,56.02
2018-06-10T10:48:21.563Z,58.35
2018-06-10T10:50:50.246Z,56.09
2018-06-10T10:53:18.877Z,55.82
2018-06-10T10:55:47.753Z,54.15
2018-06-10T10:58:16.404Z,55.78
2018-06-10T11:00:45.078Z,55.77
2018-06-10T11:03:13.703Z,53.71
2018-06-10T11:05:42.391Z,53.08
2018-06-10T11:08:11.673Z,50.51
2018-06-10T11:10:40.319Z,46.12
2018-06-10T11:13:08.963Z,46.46
2018-06-10T11:15:37.574Z,45.82
2018-06-10T11:18:06.284Z,45.13
2018-06-10T11:20:35.290Z,43.27
2018-06-10T11:23:03.928Z,43.21
2018-06-10T11:25:32.558Z,43.48
2018-06-10T11:28:01.215Z,40.96
2018-06-10T11:30:29.880Z,41.04
2018-06-10T11:32:58.459Z,41.50
2018-06-10T11:35:27.052Z,41.16
2018-06-10T11:37:55.655Z,43.11
2018-06-10T11:40:24.250Z,44.07
2018-06-10T11:42:53.162Z,43.80
2018-06-10T11:45:21.805Z,41.09
2018-06-10T11:47:50.465Z,41.46
2018-06-10T11:50:19.062Z,41.41
2018-06-10T11:52:47.671Z,40.41
2018-06-10T11:55:16.295Z,42.17
2018-06-10T11:57:44.873Z,42.95
2018-06-10T12:00:13.506Z,43.96
2018-06-10T12:02:42.118Z,44.00
2018-06-10T12:05:10.803Z,42.79
2018-06-10T12:07:39.394Z,41.43
2018-06-10T12:10:08.007Z,42.24
2018-06-10T12:12:36.718Z,44.21
2018-06-10T12:15:05.336Z,42.45
2018-06-10T12:17:34.763Z,40.82
2018-06-10T12:20:03.452Z,40.70
2018-06-10T12:22:32.117Z,41.15
2018-06-10T12:25:00.733Z,39.74
2018-06-10T12:27:29.394Z,38.42
2018-06-10T12:29:57.978Z,41.76
2018-06-10T12:32:26.551Z,41.24
2018-06-10T12:34:55.171Z,42.21
2018-06-10T12:37:23.733Z,42.31
2018-06-10T12:39:52.391Z,43.59
2018-06-10T12:42:20.987Z,43.80
2018-06-10T12:44:49.619Z,42.25
2018-06-10T12:47:18.247Z,43.02
2018-06-10T12:49:46.855Z,42.70
2018-06-10T12:52:15.431Z,42.10
2018-06-10T12:54:44.046Z,43.75
2018-06-10T12:57:12.703Z,43.02
2018-06-10T12:59:41.420Z,43.63
2018-06-10T13:02:10.024Z,44.47
2018-06-10T13:04:38.606Z,42.84
2018-06-10T13:07:07.235Z,41.86
2018-06-10T13:09:35.952Z,39.70
2018-06-10T13:12:04.580Z,39.46
2018-06-10T13:14:33.213Z,38.17
2018-06-10T13:17:01.867Z,38.99
2018-06-10T13:19:30.479Z,36.56
2018-06-10T13:21:59.070Z,36.64
2018-06-10T13:24:27.767Z,34.67
2018-06-10T13:26:56.444Z,34.35
2018-06-10T13:29:25.087Z,37.63
2018-06-10T13:31:53.726Z,41.64
2018-06-10T13:34:22.610Z,43.57
2018-06-10T13:36:51.267Z,45.82
2018-06-10T13:39:19.901Z,45.21
2018-06-10T13:41:48.542Z,46.76
2018-06-10T13:44:17.407Z,47.03
2018-06-10T13:46:46.095Z,48.30
2018-06-10T13:49:14.758Z,47.64
2018-06-10T13:51:43.427Z,47.48
2018-06-10T13:54:12.426Z,47.16
2018-06-10T13:56:41.105Z,47.33
2018-06-10T13:59:09.746Z,47.96
2018-06-10T14:01:38.606Z,47.79
2018-06-10T14:04:07.294Z,47.92
2018-06-10T14:06:35.943Z,47.75
2018-06-10T14:09:06.203Z,48.08
2018-06-10T14:11:34.866Z,48.56
2018-06-10T14:14:03.778Z,47.05
2018-06-10T14:16:32.423Z,47.24
2018-06-10T14:19:01.448Z,46.36
2018-06-10T14:21:30.238Z,46.51
2018-06-10T14:23:58.937Z,45.82
2018-06-10T14:26:28.025Z,47.41
2018-06-10T14:28:56.880Z,47.92
2018-06-10T14:31:25.641Z,47.83
2018-06-10T14:33:54.281Z,48.13
2018-06-10T14:36:23.180Z,48.55
2018-06-10T14:38:51.791Z,49.48
2018-06-10T14:41:20.513Z,49.88
2018-06-10T14:43:49.489Z,50.49
2018-06-10T14:46:18.113Z,50.46
2018-06-10T14:48:47.283Z,50.54
2018-06-10T14:51:16.224Z,51.20
2018-06-10T14:53:45.412Z,50.87
2018-06-10T14:56:14.037Z,51.17
2018-06-10T14:58:42.974Z,51.54
2018-06-10T15:01:12.060Z,51.57
2018-06-10T15:03:40.818Z,51.58
2018-06-10T15:06:10.656Z,51.09
2018-06-10T15:08:39.344Z,51.68
2018-06-10T15:11:08.554Z,51.20
2018-06-10T15:13:37.683Z,50.79
2018-06-10T15:16:07.239Z,50.97
2018-06-10T15:18:35.850Z,51.36
2018-06-10T15:21:04.538Z,51.90
2018-06-10T15:23:33.610Z,52.51
2018-06-10T15:26:02.552Z,51.89
2018-06-10T15:28:31.714Z,52.48
2018-06-10T15:31:00.707Z,51.34
2018-06-10T15:33:29.884Z,51.42
2018-06-10T15:35:58.833Z,51.68
2018-06-10T15:38:27.570Z,51.75
2018-06-10T15:40:56.827Z,53.39
2018-06-10T15:43:26.102Z,53.77
2018-06-10T15:45:55.245Z,53.97
2018-06-10T15:48:24.734Z,54.22
2018-06-10T15:50:54.101Z,54.12
2018-06-10T15:53:23.283Z,54.87
2018-06-10T15:55:52.318Z,54.38
2018-06-10T15:58:22.206Z,54.79
2018-06-10T16:00:51.881Z,55.97
2018-06-10T16:03:22.260Z,55.06
2018-06-10T16:05:51.864Z,55.24
2018-06-10T16:08:20.840Z,55.58
2018-06-10T16:10:49.924Z,55.32
2018-06-10T16:13:19.468Z,55.46
2018-06-10T16:15:48.616Z,54.20
2018-06-10T16:18:17.653Z,54.66
2018-06-10T16:20:46.840Z,55.00
2018-06-10T16:23:16.038Z,54.21
2018-06-10T16:25:46.459Z,57.06
2018-06-10T16:28:16.452Z,58.00
2018-06-10T16:30:45.782Z,56.72
2018-06-10T16:33:14.982Z,57.10
2018-06-10T16:35:43.828Z,56.98
2018-06-10T16:38:13.813Z,56.45
2018-06-10T16:40:44.002Z,56.94
2018-06-10T16:43:13.192Z,56.77
2018-06-10T16:45:43.257Z,56.69
2018-06-10T16:48:13.364Z,56.39
2018-06-10T16:50:42.322Z,56.10
2018-06-10T16:53:11.917Z,57.49
2018-06-10T16:55:41.741Z,58.11
2018-06-10T16:58:10.437Z,59.03
2018-06-10T17:00:40.152Z,60.32
2018-06-10T17:03:09.588Z,61.80
2018-06-10T17:05:38.619Z,62.48
2018-06-10T17:08:08.254Z,64.12
2018-06-10T17:10:37.799Z,65.29
2018-06-10T17:13:07.588Z,65.39
2018-06-10T17:15:37.390Z,66.27
2018-06-10T17:18:06.108Z,66.77
2018-06-10T17:20:35.247Z,66.62
2018-06-10T17:23:04.786Z,66.93
2018-06-10T17:25:34.076Z,67.31
2018-06-10T17:28:02.709Z,66.79
2018-06-10T17:30:32.079Z,67.42
2018-06-10T17:33:01.403Z,67.20
2018-06-10T17:35:30.766Z,68.34
2018-06-10T17:37:59.410Z,67.77
2018-06-10T17:40:28.444Z,68.40
2018-06-10T17:42:57.842Z,69.04
2018-06-10T17:45:26.570Z,70.14
2018-06-10T17:47:55.704Z,70.20
2018-06-10T17:50:25.255Z,70.55
2018-06-10T17:52:54.913Z,71.39
2018-06-10T17:55:23.587Z,71.77
2018-06-10T17:57:52.521Z,71.32
2018-06-10T18:00:21.181Z,72.01
2018-06-10T18:02:49.792Z,72.60
2018-06-10T18:05:18.694Z,72.89
2018-06-10T18:07:47.953Z,73.26
2018-06-10T18:10:16.611Z,73.70
2018-06-10T18:12:45.578Z,73.61
2018-06-10T18:15:14.763Z,73.71
2018-06-10T18:17:43.647Z,74.20
2018-06-10T18:20:19.090Z,74.67
2018-06-10T18:22:47.743Z,74.79
2018-06-10T18:25:17.022Z,74.21
2018-06-10T18:27:46.175Z,73.98
2018-06-10T18:30:14.846Z,74.04
2018-06-10T18:32:43.523Z,73.64
2018-06-10T18:35:13.143Z,72.85
2018-06-10T18:37:41.803Z,72.54
2018-06-10T18:40:11.155Z,71.95
2018-06-10T18:42:39.891Z,71.35
2018-06-10T18:45:08.568Z,71.31
2018-06-10T18:47:37.416Z,71.40
2018-06-10T18:50:06.207Z,71.46
2018-06-10T18:52:35.287Z,71.35
2018-06-10T18:55:05.361Z,71.07
2018-06-10T18:57:34.089Z,70.65
2018-06-10T19:00:03.596Z,70.19
2018-06-10T19:02:32.361Z,70.80
2018-06-10T19:05:01.379Z,70.94
2018-06-10T19:07:30.252Z,71.51
2018-06-10T19:09:59.425Z,71.74
2018-06-10T19:12:28.362Z,71.32
2018-06-10T19:14:57.022Z,71.55
2018-06-10T19:17:25.951Z,70.26
2018-06-10T19:19:55.007Z,71.11
2018-06-10T19:22:23.987Z,70.78
2018-06-10T19:24:52.880Z,70.20
2018-06-10T19:27:22.132Z,70.62
2018-06-10T19:29:51.115Z,70.73
2018-06-10T19:32:20.104Z,71.24
2018-06-10T19:34:49.102Z,70.45
2018-06-10T19:37:17.775Z,70.02
2018-06-10T19:39:46.526Z,68.74
2018-06-10T19:42:15.312Z,69.35
2018-06-10T19:44:43.922Z,68.14
2018-06-10T19:47:12.798Z,69.33
2018-06-10T19:49:41.494Z,68.89
2018-06-10T19:52:10.114Z,68.16
2018-06-10T19:54:39.090Z,68.63
2018-06-10T19:57:07.999Z,68.89
2018-06-10T19:59:36.950Z,67.98
2018-06-10T20:02:05.645Z,67.67
2018-06-10T20:04:34.261Z,67.79
2018-06-10T20:07:02.975Z,68.21
2018-06-10T20:09:31.666Z,66.79
2018-06-10T20:12:00.333Z,67.69
2018-06-10T20:14:28.955Z,67.40
2018-06-10T20:16:57.624Z,67.53
2018-06-10T20:19:26.617Z,67.89
2018-06-10T20:21:55.269Z,68.98
2018-06-10T20:24:23.900Z,69.29
2018-06-10T20:26:52.531Z,70.39
2018-06-10T20:29:21.180Z,70.44
2018-06-10T20:31:49.782Z,70.51
2018-06-10T20:34:18.391Z,70.70
2018-06-10T20:36:47.016Z,71.27
2018-06-10T20:39:15.673Z,70.31
2018-06-10T20:41:44.252Z,69.42
2018-06-10T20:44:12.895Z,69.67
2018-06-10T20:46:41.531Z,69.84
2018-06-10T20:49:10.203Z,69.27
2018-06-10T20:51:38.794Z,69.51
2018-06-10T20:54:07.423Z,69.38
2018-06-10T20:56:36.346Z,69.57
2018-06-10T20:59:05.004Z,69.79
2018-06-10T21:01:33.647Z,69.61
2018-06-10T21:04:02.380Z,70.88
2018-06-10T21:06:31.008Z,70.06
2018-06-10T21:08:59.656Z,69.92
2018-06-10T21:11:28.288Z,71.01
2018-06-10T21:13:56.909Z,71.29
2018-06-10T21:16:25.584Z,71.03
2018-06-10T21:18:54.507Z,71.72
2018-06-10T21:21:23.183Z,72.00
2018-06-10T21:23:52.470Z,72.43
2018-06-10T21:26:21.122Z,73.14
2018-06-10T21:28:50.161Z,74.19
2018-06-10T21:31:19.478Z,74.70
2018-06-10T21:33:48.088Z,74.35
2018-06-10T21:36:17.039Z,74.71
2018-06-10T21:38:45.655Z,75.44
2018-06-10T21:41:14.253Z,74.91
2018-06-10T21:43:42.877Z,74.58
2018-06-10T21:46:11.494Z,75.33
2018-06-10T21:48:40.159Z,74.81
2018-06-10T21:51:08.824Z,74.78
2018-06-10T21:53:37.467Z,75.28
2018-06-10T21:56:06.091Z,74.67
2018-06-10T21:58:35.687Z,74.99
2018-06-10T22:01:04.443Z,76.61
2018-06-10T22:03:34.196Z,76.30
2018-06-10T22:06:02.804Z,77.56
2018-06-10T22:08:31.452Z,77.78
2018-06-10T22:11:00.675Z,77.72
2018-06-10T22:13:29.694Z,78.03
2018-06-10T22:15:58.346Z,78.64
2018-06-10T22:18:27.274Z,79.24
2018-06-10T22:20:55.875Z,79.22
2018-06-10T22:23:24.521Z,79.63
2018-06-10T22:25:53.762Z,79.29
2018-06-10T22:28:22.346Z,80.60
2018-06-10T22:30:50.930Z,81.02
2018-06-10T22:33:19.611Z,81.85
2018-06-10T22:35:48.286Z,81.26
2018-06-10T22:38:16.970Z,81.97
2018-06-10T22:40:45.988Z,82.30
2018-06-10T22:43:15.190Z,82.61
2018-06-10T22:45:44.076Z,83.01
2018-06-10T22:48:13.937Z,84.48
2018-06-10T22:50:42.866Z,85.03
2018-06-10T22:54:21.182Z,85.13
2018-06-10T22:56:50.154Z,86.14
2018-06-10T22:59:19.071Z,86.63
2018-06-10T23:01:48.262Z,86.65
2018-06-10T23:04:17.240Z,87.74
2018-06-10T23:06:45.882Z,87.79
2018-06-10T23:09:14.778Z,88.23
2018-06-10T23:11:43.826Z,88.72
2018-06-10T23:14:12.678Z,88.24
2018-06-10T23:16:41.263Z,88.78
2018-06-10T23:19:09.906Z,89.13
2018-06-10T23:21:38.839Z,89.21
2018-06-10T23:24:07.510Z,89.38
2018-06-10T23:26:36.490Z,89.11
2018-06-10T23:29:05.135Z,88.57
2018-06-10T23:31:34.056Z,88.50
2018-06-10T23:34:03.055Z,88.87
2018-06-10T23:36:32.012Z,87.91
2018-06-10T23:39:01.038Z,88.36
2018-06-10T23:41:30.305Z,87.59
2018-06-10T23:43:58.970Z,86.31
2018-06-10T23:46:27.941Z,86.51
2018-06-10T23:48:56.932Z,86.26
2018-06-10T23:51:25.671Z,85.19
2018-06-10T23:53:54.326Z,84.20
2018-06-10T23:56:22.933Z,83.66
2018-06-10T23:58:52.458Z,82.41
